createdAt,value
2022-09-09T00:00:24.846Z,15.74
2022-09-09T00:01:24.837Z,15.77
2022-09-09T00:02:25.020Z,15.80
2022-09-09T00:03:24.992Z,15.83
2022-09-09T00:04:24.791Z,15.86
2022-09-09T00:05:24.804Z,15.90
2022-09-09T00:06:24.766Z,15.95
2022-09-09T00:07:24.761Z,16.00
2022-09-09T00:08:24.756Z,16.05
2022-09-09T00:09:24.733Z,16.10
2022-09-09T00:10:24.730Z,16.14
2022-09-09T00:11:29.351Z,16.18
2022-09-09T00:12:24.696Z,16.21
2022-09-09T00:13:24.681Z,16.23
2022-09-09T00:14:24.658Z,16.25
2022-09-09T00:15:24.662Z,16.27
2022-09-09T00:16:24.725Z,16.29
2022-09-09T00:17:24.631Z,16.31
2022-09-09T00:18:24.640Z,16.32
2022-09-09T00:19:24.639Z,16.34
2022-09-09T00:20:24.585Z,16.35
2022-09-09T00:21:24.571Z,16.37
2022-09-09T00:22:24.563Z,16.38
2022-09-09T00:23:24.584Z,16.39
2022-09-09T00:24:24.551Z,16.41
2022-09-09T00:25:24.521Z,16.42
2022-09-09T00:26:24.505Z,16.44
2022-09-09T00:27:24.505Z,16.45
2022-09-09T00:28:24.481Z,16.46
2022-09-09T00:29:24.479Z,16.47
2022-09-09T00:30:24.472Z,16.49
2022-09-09T00:31:24.511Z,16.50
2022-09-09T00:32:24.447Z,16.52
2022-09-09T00:33:24.425Z,16.53
2022-09-09T00:34:24.401Z,16.54
2022-09-09T00:35:24.419Z,16.55
2022-09-09T00:36:24.382Z,16.55
2022-09-09T00:37:24.365Z,16.55
2022-09-09T00:38:24.379Z,16.54
2022-09-09T00:39:24.343Z,16.53
2022-09-09T00:40:24.337Z,16.53
2022-09-09T00:41:24.368Z,16.52
2022-09-09T00:42:24.335Z,16.50
2022-09-09T00:43:24.317Z,16.48
2022-09-09T00:44:24.298Z,16.44
2022-09-09T00:45:24.290Z,16.40
2022-09-09T00:46:24.331Z,16.34
2022-09-09T00:47:24.250Z,16.29
2022-09-09T00:48:24.244Z,16.24
2022-09-09T00:49:24.245Z,16.20
2022-09-09T00:50:24.200Z,16.17
2022-09-09T00:51:24.201Z,16.15
2022-09-09T00:52:24.182Z,16.15
2022-09-09T00:53:24.196Z,16.15
2022-09-09T00:54:24.151Z,16.16
2022-09-09T00:55:24.152Z,16.17
2022-09-09T00:56:24.128Z,16.18
2022-09-09T00:57:24.153Z,16.20
2022-09-09T00:58:24.107Z,16.21
2022-09-09T00:59:28.216Z,16.21
2022-09-09T01:00:24.078Z,16.22
2022-09-09T01:01:24.156Z,16.22
2022-09-09T01:02:24.105Z,16.22
2022-09-09T01:03:24.055Z,16.24
2022-09-09T01:04:24.030Z,16.25
2022-09-09T01:05:24.026Z,16.27
2022-09-09T01:06:23.996Z,16.29
2022-09-09T01:07:23.995Z,16.31
2022-09-09T01:08:23.985Z,16.33
2022-09-09T01:09:23.996Z,16.36
2022-09-09T01:10:23.944Z,16.38
2022-09-09T01:11:23.938Z,16.39
2022-09-09T01:12:23.923Z,16.40
2022-09-09T01:13:23.938Z,16.41
2022-09-09T01:14:23.915Z,16.40
2022-09-09T01:15:23.891Z,16.38
2022-09-09T01:16:23.895Z,16.36
2022-09-09T01:17:23.856Z,16.32
2022-09-09T01:18:23.853Z,16.29
2022-09-09T01:19:23.862Z,16.26
2022-09-09T01:20:23.833Z,16.24
2022-09-09T01:21:23.844Z,16.21
2022-09-09T01:22:23.789Z,16.19
2022-09-09T01:23:23.812Z,16.17
2022-09-09T01:24:23.769Z,16.15
2022-09-09T01:25:23.759Z,16.13
2022-09-09T01:26:23.748Z,16.11
2022-09-09T01:27:23.727Z,16.10
2022-09-09T01:28:23.717Z,16.08
2022-09-09T01:29:23.712Z,16.07
2022-09-09T01:30:23.708Z,16.05
2022-09-09T01:31:23.737Z,16.03
2022-09-09T01:32:23.668Z,16.00
2022-09-09T01:33:23.652Z,15.98
2022-09-09T01:34:23.653Z,15.95
2022-09-09T01:35:23.643Z,15.94
2022-09-09T01:36:23.622Z,15.94
2022-09-09T01:37:23.604Z,15.94
2022-09-09T01:38:23.591Z,15.95
2022-09-09T01:39:23.582Z,15.95
2022-09-09T01:40:23.594Z,15.96
2022-09-09T01:41:23.554Z,15.97
2022-09-09T01:42:23.531Z,15.99
2022-09-09T01:43:23.521Z,16.01
2022-09-09T01:44:23.506Z,16.03
2022-09-09T01:45:23.505Z,16.05
2022-09-09T01:46:23.567Z,16.06
2022-09-09T01:47:23.476Z,16.07
2022-09-09T01:48:23.466Z,16.08
2022-09-09T01:49:23.463Z,16.10
2022-09-09T01:50:23.448Z,16.11
2022-09-09T01:51:23.423Z,16.11
2022-09-09T01:52:23.413Z,16.10
2022-09-09T01:53:23.419Z,16.09
2022-09-09T01:54:23.394Z,16.07
2022-09-09T01:55:23.379Z,16.06
2022-09-09T01:56:23.366Z,16.05
2022-09-09T01:57:23.357Z,16.05
2022-09-09T01:58:23.345Z,16.04
2022-09-09T01:59:23.322Z,16.05
2022-09-09T02:00:23.305Z,16.05
2022-09-09T02:01:23.449Z,16.04
2022-09-09T02:02:23.316Z,16.04
2022-09-09T02:03:23.278Z,16.01
2022-09-09T02:04:23.261Z,15.99
2022-09-09T02:05:23.244Z,15.96
2022-09-09T02:06:23.242Z,15.94
2022-09-09T02:07:23.224Z,15.92
2022-09-09T02:08:23.217Z,15.91
2022-09-09T02:09:23.200Z,15.90
2022-09-09T02:10:23.176Z,15.90
2022-09-09T02:11:23.168Z,15.91
2022-09-09T02:12:23.195Z,15.91
2022-09-09T02:13:23.171Z,15.91
2022-09-09T02:14:23.130Z,15.92
2022-09-09T02:15:23.129Z,15.93
2022-09-09T02:16:23.163Z,15.94
2022-09-09T02:17:23.092Z,15.95
2022-09-09T02:18:23.077Z,15.96
2022-09-09T02:19:23.083Z,15.97
2022-09-09T02:20:23.050Z,15.99
2022-09-09T02:21:23.043Z,16.00
2022-09-09T02:22:23.033Z,16.02
2022-09-09T02:23:23.055Z,16.04
2022-09-09T02:24:23.004Z,16.06
2022-09-09T02:25:22.994Z,16.06
2022-09-09T02:26:23.006Z,16.07
2022-09-09T02:27:22.992Z,16.07
2022-09-09T02:28:22.956Z,16.07
2022-09-09T02:29:22.946Z,16.06
2022-09-09T02:30:23.023Z,16.05
2022-09-09T02:31:22.928Z,16.04
2022-09-09T02:32:22.909Z,16.02
2022-09-09T02:33:22.892Z,16.00
2022-09-09T02:34:22.886Z,15.97
2022-09-09T02:35:22.873Z,15.95
2022-09-09T02:36:22.847Z,15.92
2022-09-09T02:37:22.849Z,15.90
2022-09-09T02:38:22.839Z,15.88
2022-09-09T02:39:22.844Z,15.86
2022-09-09T02:40:22.796Z,15.85
2022-09-09T02:41:22.797Z,15.84
2022-09-09T02:42:22.770Z,15.83
2022-09-09T02:43:22.787Z,15.83
2022-09-09T02:44:22.768Z,15.83
2022-09-09T02:45:22.739Z,15.83
2022-09-09T02:46:22.772Z,15.83
2022-09-09T02:47:22.713Z,15.83
2022-09-09T02:48:22.690Z,15.82
2022-09-09T02:49:22.721Z,15.82
2022-09-09T02:50:22.696Z,15.81
2022-09-09T02:51:22.660Z,15.80
2022-09-09T02:52:22.640Z,15.79
2022-09-09T02:53:22.628Z,15.79
2022-09-09T02:54:22.629Z,15.80
2022-09-09T02:55:22.634Z,15.80
2022-09-09T02:56:22.598Z,15.81
2022-09-09T02:57:22.589Z,15.82
2022-09-09T02:58:22.595Z,15.82
2022-09-09T02:59:22.549Z,15.81
2022-09-09T03:00:22.559Z,15.80
2022-09-09T03:01:22.749Z,15.79
2022-09-09T03:02:22.570Z,15.79
2022-09-09T03:03:22.506Z,15.78
2022-09-09T03:04:22.493Z,15.78
2022-09-09T03:05:22.488Z,15.78
2022-09-09T03:06:22.465Z,15.78
2022-09-09T03:07:22.444Z,15.80
2022-09-09T03:08:22.443Z,15.81
2022-09-09T03:09:22.427Z,15.83
2022-09-09T03:10:22.450Z,15.86
2022-09-09T03:11:22.410Z,15.88
2022-09-09T03:12:22.412Z,15.91
2022-09-09T03:13:22.398Z,15.93
2022-09-09T03:14:22.372Z,15.95
2022-09-09T03:15:22.361Z,15.96
2022-09-09T03:16:22.530Z,15.98
2022-09-09T03:17:22.322Z,15.99
2022-09-09T03:18:22.315Z,15.99
2022-09-09T03:19:22.323Z,16.00
2022-09-09T03:20:22.285Z,16.00
2022-09-09T03:21:22.271Z,16.01
2022-09-09T03:22:22.249Z,16.01
2022-09-09T03:23:22.240Z,16.02
2022-09-09T03:24:22.241Z,16.03
2022-09-09T03:25:22.210Z,16.03
2022-09-09T03:26:22.204Z,16.04
2022-09-09T03:27:22.216Z,16.04
2022-09-09T03:28:22.185Z,16.05
2022-09-09T03:29:22.163Z,16.05
2022-09-09T03:30:28.638Z,16.06
2022-09-09T03:31:22.220Z,16.06
2022-09-09T03:32:22.126Z,16.06
2022-09-09T03:33:22.105Z,16.06
2022-09-09T03:34:22.104Z,16.07
2022-09-09T03:35:22.083Z,16.07
2022-09-09T03:36:22.075Z,16.08
2022-09-09T03:37:22.060Z,16.08
2022-09-09T03:38:22.043Z,16.08
2022-09-09T03:39:22.031Z,16.08
2022-09-09T03:40:22.021Z,16.08
2022-09-09T03:41:22.009Z,16.08
2022-09-09T03:42:21.986Z,16.07
2022-09-09T03:43:21.995Z,16.07
2022-09-09T03:44:21.992Z,16.06
2022-09-09T03:45:21.949Z,16.04
2022-09-09T03:46:21.955Z,16.04
2022-09-09T03:47:21.923Z,16.03
2022-09-09T03:48:21.926Z,16.02
2022-09-09T03:49:21.899Z,16.02
2022-09-09T03:50:21.923Z,16.02
2022-09-09T03:51:21.875Z,16.02
2022-09-09T03:52:23.890Z,16.01
2022-09-09T03:53:21.852Z,16.00
2022-09-09T03:54:21.834Z,15.99
2022-09-09T03:55:21.816Z,15.98
2022-09-09T03:56:21.826Z,15.96
2022-09-09T03:57:21.795Z,15.93
2022-09-09T03:58:21.788Z,15.90
2022-09-09T03:59:21.782Z,15.86
2022-09-09T04:00:21.769Z,15.83
2022-09-09T04:01:21.782Z,15.80
2022-09-09T04:02:21.795Z,15.76
2022-09-09T04:03:24.714Z,15.74
2022-09-09T04:04:21.711Z,15.71
2022-09-09T04:05:21.692Z,15.69
2022-09-09T04:06:21.686Z,15.66
2022-09-09T04:07:21.662Z,15.63
2022-09-09T04:08:21.666Z,15.60
2022-09-09T04:09:21.642Z,15.58
2022-09-09T04:10:21.633Z,15.57
2022-09-09T04:11:21.627Z,15.55
2022-09-09T04:12:21.599Z,15.54
2022-09-09T04:13:21.580Z,15.52
2022-09-09T04:14:21.609Z,15.49
2022-09-09T04:15:21.562Z,15.47
2022-09-09T04:16:21.574Z,15.46
2022-09-09T04:17:21.543Z,15.45
2022-09-09T04:18:21.521Z,15.45
2022-09-09T04:19:21.511Z,15.45
2022-09-09T04:20:21.509Z,15.45
2022-09-09T04:21:21.475Z,15.46
2022-09-09T04:22:21.468Z,15.48
2022-09-09T04:23:21.451Z,15.49
2022-09-09T04:24:21.448Z,15.50
2022-09-09T04:25:21.431Z,15.51
2022-09-09T04:26:21.418Z,15.52
2022-09-09T04:27:21.560Z,15.53
2022-09-09T04:28:21.393Z,15.54
2022-09-09T04:29:21.374Z,15.55
2022-09-09T04:30:21.388Z,15.56
2022-09-09T04:31:21.472Z,15.57
2022-09-09T04:32:21.335Z,15.57
2022-09-09T04:33:21.354Z,15.57
2022-09-09T04:34:21.311Z,15.57
2022-09-09T04:35:21.320Z,15.56
2022-09-09T04:36:21.284Z,15.55
2022-09-09T04:37:21.282Z,15.55
2022-09-09T04:38:21.280Z,15.54
2022-09-09T04:39:21.246Z,15.54
2022-09-09T04:40:21.251Z,15.55
2022-09-09T04:41:21.244Z,15.56
2022-09-09T04:42:21.219Z,15.57
2022-09-09T04:43:21.206Z,15.59
2022-09-09T04:44:21.247Z,15.61
2022-09-09T04:45:21.247Z,15.64
2022-09-09T04:46:21.174Z,15.66
2022-09-09T04:47:21.176Z,15.68
2022-09-09T04:48:21.146Z,15.69
2022-09-09T04:49:21.120Z,15.71
2022-09-09T04:50:21.133Z,15.72
2022-09-09T04:51:21.106Z,15.73
2022-09-09T04:52:21.104Z,15.75
2022-09-09T04:53:21.092Z,15.76
2022-09-09T04:54:21.065Z,15.76
2022-09-09T04:55:21.044Z,15.77
2022-09-09T04:56:21.042Z,15.76
2022-09-09T04:57:21.012Z,15.74
2022-09-09T04:58:21.001Z,15.72
2022-09-09T04:59:21.003Z,15.70
2022-09-09T05:00:20.979Z,15.68
2022-09-09T05:01:21.064Z,15.66
2022-09-09T05:02:21.063Z,15.65
2022-09-09T05:03:20.937Z,15.62
2022-09-09T05:04:20.926Z,15.59
2022-09-09T05:05:20.914Z,15.55
2022-09-09T05:06:20.900Z,15.51
2022-09-09T05:07:20.888Z,15.47
2022-09-09T05:08:20.881Z,15.43
2022-09-09T05:09:20.857Z,15.41
2022-09-09T05:10:20.861Z,15.38
2022-09-09T05:11:20.826Z,15.36
2022-09-09T05:12:20.831Z,15.34
2022-09-09T05:13:20.805Z,15.33
2022-09-09T05:14:20.796Z,15.32
2022-09-09T05:15:20.796Z,15.32
2022-09-09T05:16:20.821Z,15.34
2022-09-09T05:17:20.752Z,15.36
2022-09-09T05:18:20.748Z,15.39
2022-09-09T05:19:20.725Z,15.42
2022-09-09T05:20:20.719Z,15.44
2022-09-09T05:21:20.716Z,15.45
2022-09-09T05:22:20.704Z,15.47
2022-09-09T05:23:20.671Z,15.47
2022-09-09T05:24:20.672Z,15.48
2022-09-09T05:25:20.661Z,15.48
2022-09-09T05:26:20.638Z,15.48
2022-09-09T05:27:20.639Z,15.49
2022-09-09T05:28:20.614Z,15.49
2022-09-09T05:29:20.619Z,15.50
2022-09-09T05:30:20.600Z,15.51
2022-09-09T05:31:20.738Z,15.52
2022-09-09T05:32:20.562Z,15.54
2022-09-09T05:33:20.554Z,15.56
2022-09-09T05:34:20.530Z,15.57
2022-09-09T05:35:20.530Z,15.58
2022-09-09T05:36:20.515Z,15.59
2022-09-09T05:37:20.492Z,15.60
2022-09-09T05:38:20.483Z,15.61
2022-09-09T05:39:20.468Z,15.61
2022-09-09T05:40:20.527Z,15.61
2022-09-09T05:41:20.437Z,15.61
2022-09-09T05:42:20.438Z,15.61
2022-09-09T05:43:20.434Z,15.61
2022-09-09T05:44:20.530Z,15.62
2022-09-09T05:45:20.387Z,15.61
2022-09-09T05:46:20.452Z,15.61
2022-09-09T05:47:20.370Z,15.60
2022-09-09T05:48:20.391Z,15.59
2022-09-09T05:49:20.343Z,15.59
2022-09-09T05:50:20.339Z,15.60
2022-09-09T05:51:20.307Z,15.60
2022-09-09T05:52:20.339Z,15.60
2022-09-09T05:53:20.280Z,15.59
2022-09-09T05:54:20.288Z,15.58
2022-09-09T05:55:20.252Z,15.59
2022-09-09T05:56:20.245Z,15.59
2022-09-09T05:57:20.239Z,15.60
2022-09-09T05:58:20.318Z,15.62
2022-09-09T05:59:20.215Z,15.63
2022-09-09T06:00:20.203Z,15.63
2022-09-09T06:01:20.249Z,15.60
2022-09-09T06:02:20.296Z,15.56
2022-09-09T06:03:20.235Z,15.50
2022-09-09T06:04:20.143Z,15.45
2022-09-09T06:05:20.182Z,15.41
2022-09-09T06:06:20.120Z,15.38
2022-09-09T06:07:20.108Z,15.35
2022-09-09T06:08:20.105Z,15.34
2022-09-09T06:09:20.098Z,15.32
2022-09-09T06:10:20.067Z,15.32
2022-09-09T06:11:20.076Z,15.34
2022-09-09T06:12:20.052Z,15.35
2022-09-09T06:13:20.050Z,15.37
2022-09-09T06:14:20.017Z,15.38
2022-09-09T06:15:19.992Z,15.40
2022-09-09T06:16:20.019Z,15.41
2022-09-09T06:17:19.974Z,15.42
2022-09-09T06:18:19.962Z,15.43
2022-09-09T06:19:19.957Z,15.45
2022-09-09T06:20:19.934Z,15.46
2022-09-09T06:21:19.925Z,15.48
2022-09-09T06:22:19.909Z,15.49
2022-09-09T06:23:19.892Z,15.50
2022-09-09T06:24:19.893Z,15.50
2022-09-09T06:25:19.903Z,15.50
2022-09-09T06:26:19.854Z,15.49
2022-09-09T06:27:19.839Z,15.48
2022-09-09T06:28:19.839Z,15.47
2022-09-09T06:29:19.816Z,15.46
2022-09-09T06:30:19.816Z,15.45
2022-09-09T06:31:19.835Z,15.44
2022-09-09T06:32:19.792Z,15.44
2022-09-09T06:33:19.760Z,15.44
2022-09-09T06:34:19.756Z,15.45
2022-09-09T06:35:19.734Z,15.45
2022-09-09T06:36:19.739Z,15.46
2022-09-09T06:37:19.722Z,15.47
2022-09-09T06:38:19.705Z,15.48
2022-09-09T06:39:19.685Z,15.49
2022-09-09T06:40:19.750Z,15.49
2022-09-09T06:41:19.655Z,15.49
2022-09-09T06:42:19.655Z,15.49
2022-09-09T06:43:19.636Z,15.49
2022-09-09T06:44:19.662Z,15.48
2022-09-09T06:45:19.610Z,15.48
2022-09-09T06:46:19.675Z,15.47
2022-09-09T06:47:19.580Z,15.48
2022-09-09T06:48:19.567Z,15.50
2022-09-09T06:49:19.552Z,15.52
2022-09-09T06:50:19.552Z,15.54
2022-09-09T06:51:19.529Z,15.55
2022-09-09T06:52:19.521Z,15.55
2022-09-09T06:53:19.509Z,15.54
2022-09-09T06:54:19.497Z,15.52
2022-09-09T06:55:19.474Z,15.51
2022-09-09T06:56:19.470Z,15.50
2022-09-09T06:58:19.449Z,15.51
2022-09-09T06:59:19.449Z,15.52
2022-09-09T07:00:19.443Z,15.53
2022-09-09T07:01:19.465Z,15.54
2022-09-09T07:02:19.428Z,15.55
2022-09-09T07:03:19.401Z,15.55
2022-09-09T07:04:19.367Z,15.55
2022-09-09T07:05:19.379Z,15.54
2022-09-09T07:06:19.339Z,15.53
2022-09-09T07:07:19.332Z,15.52
2022-09-09T07:08:19.311Z,15.51
2022-09-09T07:09:19.313Z,15.50
2022-09-09T07:10:19.283Z,15.48
2022-09-09T07:11:19.277Z,15.46
2022-09-09T07:12:19.294Z,15.44
2022-09-09T07:13:19.254Z,15.41
2022-09-09T07:14:19.271Z,15.39
2022-09-09T07:15:19.244Z,15.39
2022-09-09T07:16:19.279Z,15.39
2022-09-09T07:17:19.191Z,15.39
2022-09-09T07:18:19.183Z,15.39
2022-09-09T07:19:19.167Z,15.40
2022-09-09T07:20:19.167Z,15.42
2022-09-09T07:21:19.138Z,15.45
2022-09-09T07:22:19.142Z,15.48
2022-09-09T07:23:19.110Z,15.50
2022-09-09T07:24:19.116Z,15.52
2022-09-09T07:25:19.096Z,15.54
2022-09-09T07:26:19.093Z,15.56
2022-09-09T07:27:19.095Z,15.58
2022-09-09T07:28:19.053Z,15.60
2022-09-09T07:29:21.034Z,15.62
2022-09-09T07:30:24.162Z,15.64
2022-09-09T07:31:19.081Z,15.66
2022-09-09T07:32:19.003Z,15.69
2022-09-09T07:33:18.991Z,15.71
2022-09-09T07:34:18.979Z,15.74
2022-09-09T07:35:18.972Z,15.77
2022-09-09T07:36:18.944Z,15.80
2022-09-09T07:37:18.937Z,15.83
2022-09-09T07:38:18.923Z,15.86
2022-09-09T07:39:18.981Z,15.90
2022-09-09T07:40:18.948Z,15.93
2022-09-09T07:41:18.892Z,15.95
2022-09-09T07:42:18.885Z,15.97
2022-09-09T07:43:18.854Z,15.99
2022-09-09T07:44:18.855Z,16.01
2022-09-09T07:45:18.832Z,16.03
2022-09-09T07:46:18.852Z,16.04
2022-09-09T07:47:18.807Z,16.05
2022-09-09T07:48:18.792Z,16.07
2022-09-09T07:49:22.827Z,16.08
2022-09-09T07:50:18.793Z,16.08
2022-09-09T07:51:18.753Z,16.08
2022-09-09T07:52:20.250Z,16.08
2022-09-09T07:53:18.734Z,16.08
2022-09-09T07:54:18.727Z,16.08
2022-09-09T07:55:18.696Z,16.09
2022-09-09T07:56:18.706Z,16.10
2022-09-09T07:57:19.477Z,16.11
2022-09-09T07:58:18.667Z,16.12
2022-09-09T07:59:18.654Z,16.13
2022-09-09T08:00:18.627Z,16.14
2022-09-09T08:01:18.701Z,16.15
2022-09-09T08:02:18.620Z,16.15
2022-09-09T08:03:18.630Z,16.14
2022-09-09T08:04:18.588Z,16.14
2022-09-09T08:05:18.576Z,16.13
2022-09-09T08:06:18.555Z,16.14
2022-09-09T08:07:18.550Z,16.15
2022-09-09T08:08:18.578Z,16.16
2022-09-09T08:09:18.525Z,16.16
2022-09-09T08:10:18.511Z,16.16
2022-09-09T08:11:18.507Z,16.16
2022-09-09T08:12:18.481Z,16.16
2022-09-09T08:13:18.959Z,16.17
2022-09-09T08:14:18.456Z,16.17
2022-09-09T08:15:18.461Z,16.18
2022-09-09T08:16:18.472Z,16.20
2022-09-09T08:17:18.412Z,16.22
2022-09-09T08:18:18.398Z,16.23
2022-09-09T08:19:18.397Z,16.24
2022-09-09T08:20:18.379Z,16.24
2022-09-09T08:21:18.363Z,16.23
2022-09-09T08:22:18.344Z,16.22
2022-09-09T08:23:18.340Z,16.22
2022-09-09T08:24:18.328Z,16.23
2022-09-09T08:25:18.344Z,16.25
2022-09-09T08:26:18.306Z,16.27
2022-09-09T08:27:18.287Z,16.29
2022-09-09T08:28:18.267Z,16.31
2022-09-09T08:29:18.262Z,16.34
2022-09-09T08:30:18.345Z,16.36
2022-09-09T08:31:18.303Z,16.38
2022-09-09T08:32:18.233Z,16.41
2022-09-09T08:33:18.213Z,16.43
2022-09-09T08:34:18.191Z,16.45
2022-09-09T08:35:18.175Z,16.46
2022-09-09T08:36:18.177Z,16.48
2022-09-09T08:37:18.161Z,16.49
2022-09-09T08:38:18.135Z,16.50
2022-09-09T08:39:18.144Z,16.52
2022-09-09T08:40:18.287Z,16.54
2022-09-09T08:41:18.106Z,16.55
2022-09-09T08:42:18.109Z,16.57
2022-09-09T08:43:18.076Z,16.58
2022-09-09T08:44:18.056Z,16.60
2022-09-09T08:45:18.060Z,16.61
2022-09-09T08:46:18.103Z,16.63
2022-09-09T08:47:18.023Z,16.65
2022-09-09T08:48:18.016Z,16.67
2022-09-09T08:49:17.992Z,16.68
2022-09-09T08:50:18.034Z,16.69
2022-09-09T08:51:17.992Z,16.70
2022-09-09T08:52:17.963Z,16.70
2022-09-09T08:53:17.946Z,16.70
2022-09-09T08:54:30.171Z,16.70
2022-09-09T08:55:17.929Z,16.71
2022-09-09T08:56:17.906Z,16.72
2022-09-09T08:57:17.897Z,16.73
2022-09-09T08:58:17.877Z,16.74
2022-09-09T08:59:17.866Z,16.76
2022-09-09T09:00:17.852Z,16.78
2022-09-09T09:01:17.902Z,16.80
2022-09-09T09:02:17.929Z,16.82
2022-09-09T09:03:17.818Z,16.83
2022-09-09T09:04:17.841Z,16.85
2022-09-09T09:05:17.830Z,16.86
2022-09-09T09:06:17.800Z,16.87
2022-09-09T09:07:17.772Z,16.88
2022-09-09T09:08:17.747Z,16.89
2022-09-09T09:09:17.742Z,16.90
2022-09-09T09:10:40.135Z,16.91
2022-09-09T09:11:17.714Z,16.93
2022-09-09T09:12:17.726Z,16.94
2022-09-09T09:13:17.687Z,16.95
2022-09-09T09:14:17.718Z,16.97
2022-09-09T09:15:17.699Z,16.97
2022-09-09T09:16:17.664Z,16.98
2022-09-09T09:17:17.658Z,16.99
2022-09-09T09:18:17.625Z,17.00
2022-09-09T09:19:17.606Z,17.01
2022-09-09T09:20:17.604Z,17.02
2022-09-09T09:21:17.584Z,17.03
2022-09-09T09:22:17.591Z,17.04
2022-09-09T09:23:17.569Z,17.05
2022-09-09T09:24:21.224Z,17.06
2022-09-09T09:25:17.545Z,17.08
2022-09-09T09:26:17.524Z,17.09
2022-09-09T09:27:17.505Z,17.10
2022-09-09T09:28:17.515Z,17.12
2022-09-09T09:29:17.501Z,17.13
2022-09-09T09:30:25.633Z,17.14
2022-09-09T09:32:27.953Z,18.27
2022-09-09T09:33:28.948Z,17.84
2022-09-09T09:34:28.929Z,17.56
2022-09-09T09:35:28.920Z,17.40
2022-09-09T09:36:28.921Z,17.32
2022-09-09T09:37:29.116Z,17.26
2022-09-09T09:40:28.872Z,17.17
2022-09-09T09:41:28.856Z,17.14
2022-09-09T09:42:28.822Z,17.12
2022-09-09T09:43:28.838Z,17.10
2022-09-09T09:44:28.805Z,17.09
2022-09-09T09:45:28.778Z,17.07
2022-09-09T09:46:28.891Z,17.04
2022-09-09T09:47:28.749Z,16.99
2022-09-09T09:48:28.747Z,16.94
2022-09-09T09:49:28.732Z,16.88
2022-09-09T09:50:28.726Z,16.82
2022-09-09T09:51:28.705Z,16.77
2022-09-09T09:52:28.708Z,16.73
2022-09-09T09:53:28.717Z,16.70
2022-09-09T09:54:28.676Z,16.69
2022-09-09T09:55:28.650Z,16.69
2022-09-09T09:56:28.664Z,16.69
2022-09-09T09:57:28.640Z,16.70
2022-09-09T09:58:28.621Z,16.71
2022-09-09T09:59:39.193Z,16.71
2022-09-09T10:00:28.593Z,16.71
2022-09-09T10:01:28.670Z,16.71
2022-09-09T10:02:28.595Z,16.70
2022-09-09T10:03:28.543Z,16.68
2022-09-09T10:04:28.612Z,16.67
2022-09-09T10:05:31.524Z,16.66
2022-09-09T10:06:28.524Z,16.65
2022-09-09T10:07:28.503Z,16.64
2022-09-09T10:08:28.511Z,16.62
2022-09-09T10:09:28.464Z,16.61
2022-09-09T10:10:28.484Z,16.60
2022-09-09T10:11:28.443Z,16.59
2022-09-09T10:12:28.433Z,16.58
2022-09-09T10:13:28.427Z,16.58
2022-09-09T10:14:28.415Z,16.58
2022-09-09T10:15:28.477Z,16.58
2022-09-09T10:16:28.385Z,16.57
2022-09-09T10:17:28.378Z,16.56
2022-09-09T10:18:28.373Z,16.55
2022-09-09T10:19:28.350Z,16.54
2022-09-09T10:20:28.395Z,16.54
2022-09-09T10:21:32.901Z,16.53
2022-09-09T10:22:28.323Z,16.52
2022-09-09T10:23:28.285Z,16.52
2022-09-09T10:24:28.278Z,16.51
2022-09-09T10:25:28.270Z,16.50
2022-09-09T10:26:28.258Z,16.50
2022-09-09T10:27:28.251Z,16.50
2022-09-09T10:28:28.224Z,16.51
2022-09-09T10:29:28.282Z,16.51
2022-09-09T10:30:28.211Z,16.51
2022-09-09T10:31:28.225Z,16.51
2022-09-09T10:32:28.214Z,16.50
2022-09-09T10:33:28.165Z,16.48
2022-09-09T10:34:31.045Z,16.46
2022-09-09T10:35:28.683Z,16.45
2022-09-09T10:36:28.120Z,16.45
2022-09-09T10:37:28.171Z,16.45
2022-09-09T10:38:28.100Z,16.46
2022-09-09T10:39:28.125Z,16.45
2022-09-09T10:40:28.122Z,16.43
2022-09-09T10:41:28.064Z,16.40
2022-09-09T10:42:28.044Z,16.37
2022-09-09T10:43:29.047Z,16.36
2022-09-09T10:44:28.029Z,16.35
2022-09-09T10:45:27.996Z,16.35
2022-09-09T10:46:28.073Z,16.34
2022-09-09T10:47:28.256Z,16.34
2022-09-09T10:48:27.977Z,16.33
2022-09-09T10:49:27.951Z,16.32
2022-09-09T10:50:38.085Z,16.30
2022-09-09T10:51:27.925Z,16.28
2022-09-09T10:52:27.914Z,16.26
2022-09-09T10:53:27.966Z,16.26
2022-09-09T10:54:27.891Z,16.26
2022-09-09T10:55:29.918Z,16.28
2022-09-09T10:56:27.877Z,16.30
2022-09-09T10:57:27.847Z,16.31
2022-09-09T10:58:27.837Z,16.33
2022-09-09T10:59:28.058Z,16.33
2022-09-09T11:00:27.820Z,16.31
2022-09-09T11:01:27.849Z,16.28
2022-09-09T11:02:27.836Z,16.26
2022-09-09T11:03:27.765Z,16.25
2022-09-09T11:04:28.587Z,16.26
2022-09-09T11:05:27.748Z,16.28
2022-09-09T11:06:27.785Z,16.30
2022-09-09T11:07:27.740Z,16.32
2022-09-09T11:08:27.746Z,16.34
2022-09-09T11:09:27.685Z,16.37
2022-09-09T11:10:28.636Z,16.40
2022-09-09T11:11:27.764Z,16.43
2022-09-09T11:12:27.643Z,16.46
2022-09-09T11:13:27.649Z,16.49
2022-09-09T11:14:27.654Z,16.52
2022-09-09T11:15:27.612Z,16.56
2022-09-09T11:16:27.643Z,16.60
2022-09-09T11:17:27.601Z,16.65
2022-09-09T11:18:27.585Z,16.70
2022-09-09T11:19:27.557Z,16.75
2022-09-09T11:20:27.579Z,16.80
2022-09-09T11:21:27.612Z,16.85
2022-09-09T11:22:27.528Z,16.89
2022-09-09T11:23:27.507Z,16.93
2022-09-09T11:24:27.514Z,16.96
2022-09-09T11:25:27.551Z,16.99
2022-09-09T11:26:27.467Z,17.02
2022-09-09T11:27:27.488Z,17.04
2022-09-09T11:28:27.444Z,17.07
2022-09-09T11:29:27.447Z,17.10
2022-09-09T11:30:53.777Z,17.13
2022-09-09T11:31:27.478Z,17.15
2022-09-09T11:32:27.399Z,17.18
2022-09-09T11:33:27.416Z,17.21
2022-09-09T11:34:27.420Z,17.24
2022-09-09T11:35:27.427Z,17.26
2022-09-09T11:36:27.334Z,17.28
2022-09-09T11:37:27.327Z,17.30
2022-09-09T11:38:27.918Z,17.33
2022-09-09T11:39:27.321Z,17.35
2022-09-09T11:40:27.291Z,17.36
2022-09-09T11:41:27.297Z,17.38
2022-09-09T11:42:27.289Z,17.40
2022-09-09T11:43:27.247Z,17.41
2022-09-09T11:44:27.298Z,17.43
2022-09-09T11:45:27.237Z,17.44
2022-09-09T11:46:27.257Z,17.46
2022-09-09T11:47:27.223Z,17.47
2022-09-09T11:48:27.181Z,17.48
2022-09-09T11:49:27.185Z,17.49
2022-09-09T11:50:27.195Z,17.50
2022-09-09T11:51:27.154Z,17.51
2022-09-09T11:52:27.154Z,17.50
2022-09-09T11:53:27.136Z,17.49
2022-09-09T11:54:27.114Z,17.47
2022-09-09T11:55:27.142Z,17.46
2022-09-09T11:56:27.086Z,17.43
2022-09-09T11:57:27.068Z,17.39
2022-09-09T11:58:27.067Z,17.35
2022-09-09T11:59:27.050Z,17.33
2022-09-09T12:00:27.059Z,17.31
2022-09-09T12:01:27.074Z,17.30
2022-09-09T12:02:27.038Z,17.31
2022-09-09T12:03:26.994Z,17.32
2022-09-09T12:04:26.978Z,17.32
2022-09-09T12:05:27.007Z,17.30
2022-09-09T12:06:26.963Z,17.28
2022-09-09T12:07:26.934Z,17.26
2022-09-09T12:08:26.922Z,17.25
2022-09-09T12:09:26.915Z,17.24
2022-09-09T12:10:26.930Z,17.24
2022-09-09T12:11:26.882Z,17.24
2022-09-09T12:12:26.896Z,17.25
2022-09-09T12:13:26.862Z,17.27
2022-09-09T12:14:26.869Z,17.30
2022-09-09T12:15:26.845Z,17.33
2022-09-09T12:16:26.926Z,17.37
2022-09-09T12:17:26.876Z,17.41
2022-09-09T12:18:26.793Z,17.45
2022-09-09T12:19:27.228Z,17.48
2022-09-09T12:20:26.766Z,17.51
2022-09-09T12:21:26.762Z,17.54
2022-09-09T12:22:26.747Z,17.58
2022-09-09T12:23:26.740Z,17.61
2022-09-09T12:24:26.722Z,17.65
2022-09-09T12:25:26.716Z,17.67
2022-09-09T12:26:26.718Z,17.69
2022-09-09T12:27:26.674Z,17.69
2022-09-09T12:28:26.686Z,17.69
2022-09-09T12:29:26.664Z,17.70
2022-09-09T12:30:26.667Z,17.71
2022-09-09T12:31:26.625Z,17.72
2022-09-09T12:32:26.617Z,17.73
2022-09-09T12:33:26.681Z,17.75
2022-09-09T12:34:27.076Z,17.77
2022-09-09T12:35:26.585Z,17.78
2022-09-09T12:36:26.567Z,17.78
2022-09-09T12:37:26.548Z,17.80
2022-09-09T12:38:26.568Z,17.81
2022-09-09T12:39:26.538Z,17.83
2022-09-09T12:40:26.559Z,17.85
2022-09-09T12:41:26.491Z,17.87
2022-09-09T12:42:26.511Z,17.88
2022-09-09T12:43:26.521Z,17.90
2022-09-09T12:44:26.456Z,17.91
2022-09-09T12:45:26.467Z,17.91
2022-09-09T12:46:26.480Z,17.92
2022-09-09T12:47:30.128Z,17.94
2022-09-09T12:48:26.410Z,17.96
2022-09-09T12:49:26.391Z,17.98
2022-09-09T12:50:26.378Z,18.00
2022-09-09T12:51:26.373Z,18.02
2022-09-09T12:52:26.351Z,18.05
2022-09-09T12:53:26.641Z,18.07
2022-09-09T12:54:26.335Z,18.09
2022-09-09T12:55:26.350Z,18.11
2022-09-09T12:56:27.039Z,18.13